createdAt,value
2018-10-12T00:00:46.373Z,23.13
2018-10-12T00:03:14.032Z,29.30
2018-10-12T00:05:42.252Z,22.07
2018-10-12T00:08:09.895Z,25.55
2018-10-12T00:10:37.462Z,24.47
2018-10-12T00:13:05.340Z,21.87
2018-10-12T00:15:33.090Z,23.70
2018-10-12T00:18:00.748Z,17.87
2018-10-12T00:20:28.670Z,26.20
2018-10-12T00:22:56.372Z,22.97
2018-10-12T00:25:24.008Z,23.95
2018-10-12T00:27:51.758Z,20.40
2018-10-12T00:30:19.383Z,20.27
2018-10-12T00:32:47.086Z,22.80
2018-10-12T00:35:14.766Z,23.80
2018-10-12T00:37:42.563Z,32.10
2018-10-12T00:40:10.242Z,23.37
2018-10-12T00:42:37.885Z,22.67
2018-10-12T00:45:05.634Z,21.23
2018-10-12T00:47:33.313Z,23.43
2018-10-12T00:50:00.906Z,19.07
2018-10-12T00:52:28.496Z,31.93
2018-10-12T00:54:56.282Z,22.93
2018-10-12T00:57:24.079Z,19.65
2018-10-12T00:59:51.790Z,19.90
2018-10-12T01:02:19.467Z,20.47
2018-10-12T01:04:47.067Z,28.03
2018-10-12T01:07:14.779Z,28.37
2018-10-12T01:09:42.435Z,31.05
2018-10-12T01:12:25.090Z,22.00
2018-10-12T01:14:52.871Z,21.60
2018-10-12T01:17:20.539Z,20.90
2018-10-12T01:19:48.135Z,24.52
2018-10-12T01:22:15.856Z,24.20
2018-10-12T01:24:43.520Z,23.50
2018-10-12T01:27:11.208Z,23.97
2018-10-12T01:29:38.856Z,27.33
2018-10-12T01:32:06.530Z,24.47
2018-10-12T01:34:34.199Z,25.90
2018-10-12T01:37:01.810Z,21.43
2018-10-12T01:39:29.518Z,25.63
2018-10-12T01:41:57.354Z,23.43
2018-10-12T01:44:24.986Z,31.35
2018-10-12T01:46:52.629Z,29.93
2018-10-12T01:49:20.219Z,26.73
2018-10-12T01:51:47.869Z,31.55
2018-10-12T01:54:15.542Z,24.50
2018-10-12T01:56:43.214Z,24.30
2018-10-12T01:59:10.914Z,23.63
2018-10-12T02:01:38.566Z,21.80
2018-10-12T02:04:06.280Z,23.92
2018-10-12T02:06:33.975Z,30.33
2018-10-12T02:09:01.618Z,29.23
2018-10-12T02:11:29.269Z,24.83
2018-10-12T02:13:56.926Z,31.17
2018-10-12T02:16:24.579Z,29.97
2018-10-12T02:18:52.196Z,27.65
2018-10-12T02:21:19.853Z,23.92
2018-10-12T02:23:47.662Z,27.80
2018-10-12T02:26:15.315Z,24.77
2018-10-12T02:28:42.965Z,33.83
2018-10-12T02:31:10.648Z,34.60
2018-10-12T02:33:38.342Z,25.45
2018-10-12T02:36:06.440Z,35.40
2018-10-12T02:38:34.164Z,24.05
2018-10-12T02:41:01.881Z,25.72
2018-10-12T02:43:29.629Z,33.47
2018-10-12T02:45:57.358Z,25.40
2018-10-12T02:48:25.033Z,25.90
2018-10-12T02:50:52.771Z,33.53
2018-10-12T02:53:20.467Z,26.37
2018-10-12T02:55:48.141Z,25.10
2018-10-12T02:58:15.808Z,25.20
2018-10-12T03:00:43.510Z,32.35
2018-10-12T03:03:11.153Z,31.87
2018-10-12T03:05:38.817Z,24.33
2018-10-12T03:08:06.444Z,24.77
2018-10-12T03:10:34.082Z,29.00
2018-10-12T03:13:01.702Z,27.98
2018-10-12T03:15:29.357Z,29.20
2018-10-12T03:17:56.956Z,29.00
2018-10-12T03:20:24.617Z,22.13
2018-10-12T03:22:52.265Z,26.10
2018-10-12T03:25:19.907Z,27.48
2018-10-12T03:28:05.206Z,25.80
2018-10-12T03:30:32.897Z,26.43
2018-10-12T03:33:00.591Z,26.30
2018-10-12T03:35:28.335Z,28.90
2018-10-12T03:37:56.024Z,27.07
2018-10-12T03:40:23.673Z,33.83
2018-10-12T03:42:51.362Z,33.70
2018-10-12T03:45:18.963Z,22.60
2018-10-12T03:47:46.711Z,23.75
2018-10-12T03:50:14.399Z,26.57
2018-10-12T03:52:42.048Z,22.63
2018-10-12T03:55:09.715Z,31.43
2018-10-12T03:57:37.500Z,28.60
2018-10-12T04:00:05.167Z,26.20
2018-10-12T04:02:32.844Z,25.23
2018-10-12T04:05:00.577Z,31.40
2018-10-12T04:07:28.256Z,28.15
2018-10-12T04:09:56.003Z,27.20
2018-10-12T04:12:23.702Z,25.27
2018-10-12T04:14:51.413Z,36.03
2018-10-12T04:17:19.094Z,36.73
2018-10-12T04:19:46.751Z,30.37
2018-10-12T04:22:19.004Z,28.65
2018-10-12T04:24:46.809Z,23.03
2018-10-12T04:27:14.454Z,27.17
2018-10-12T04:29:42.132Z,24.57
2018-10-12T04:32:09.957Z,28.75
2018-10-12T04:34:37.650Z,21.87
2018-10-12T04:37:05.710Z,23.47
2018-10-12T04:39:50.002Z,28.17
2018-10-12T04:42:17.650Z,28.87
2018-10-12T04:44:45.310Z,29.40
2018-10-12T04:47:12.984Z,24.30
2018-10-12T04:49:40.769Z,25.30
2018-10-12T04:52:08.552Z,32.10
2018-10-12T04:54:36.172Z,22.73
2018-10-12T04:57:03.859Z,28.03
2018-10-12T04:59:31.571Z,28.10
2018-10-12T05:01:59.241Z,26.87
2018-10-12T05:04:26.910Z,29.53
2018-10-12T05:06:54.659Z,25.30
2018-10-12T05:09:22.349Z,30.93
2018-10-12T05:11:50.071Z,35.40
2018-10-12T05:14:17.736Z,30.05
2018-10-12T05:16:45.403Z,32.90
2018-10-12T05:19:13.113Z,31.52
2018-10-12T05:21:40.731Z,28.07
2018-10-12T05:24:08.391Z,27.17
2018-10-12T05:26:36.091Z,25.80
2018-10-12T05:29:03.853Z,29.60
2018-10-12T05:31:31.497Z,25.70
2018-10-12T05:33:59.220Z,28.90
2018-10-12T05:36:26.803Z,29.27
2018-10-12T05:38:54.433Z,33.10
2018-10-12T05:41:22.062Z,33.40
2018-10-12T05:43:49.790Z,31.00
2018-10-12T05:46:17.336Z,31.63
2018-10-12T05:49:02.619Z,40.60
2018-10-12T05:51:30.241Z,30.27
2018-10-12T05:53:58.124Z,27.15
2018-10-12T05:56:29.199Z,29.98
2018-10-12T05:58:57.719Z,31.83
2018-10-12T06:01:25.492Z,29.57
2018-10-12T06:03:53.135Z,43.60
2018-10-12T06:06:21.210Z,36.38
2018-10-12T06:08:48.932Z,31.87
2018-10-12T06:11:17.208Z,31.97
2018-10-12T06:13:44.982Z,28.53
2018-10-12T06:16:12.873Z,37.23
2018-10-12T06:18:40.596Z,33.73
2018-10-12T06:21:08.290Z,35.30
2018-10-12T06:23:36.108Z,40.43
2018-10-12T06:26:04.539Z,32.00
2018-10-12T06:28:32.212Z,35.00
2018-10-12T06:30:59.973Z,31.50
2018-10-12T06:33:27.656Z,42.48
2018-10-12T06:35:55.297Z,32.63
2018-10-12T06:38:22.940Z,30.50
2018-10-12T06:40:50.666Z,27.67
2018-10-12T06:43:18.332Z,33.57
2018-10-12T06:45:45.920Z,26.75
2018-10-12T06:48:13.526Z,32.70
2018-10-12T06:50:42.160Z,40.40
2018-10-12T06:53:10.343Z,34.50
2018-10-12T06:55:38.020Z,38.07
2018-10-12T06:58:06.383Z,33.17
2018-10-12T07:00:34.126Z,28.33
2018-10-12T07:03:01.842Z,36.00
2018-10-12T07:05:29.486Z,33.50
2018-10-12T07:07:57.270Z,33.03
2018-10-12T07:10:24.912Z,27.03
2018-10-12T07:12:52.575Z,39.80
2018-10-12T07:15:20.437Z,32.20
2018-10-12T07:17:48.052Z,39.03
2018-10-12T07:20:15.680Z,34.70
2018-10-12T07:22:43.519Z,31.10
2018-10-12T07:25:11.276Z,33.33
2018-10-12T07:27:38.993Z,29.57
2018-10-12T07:30:06.715Z,25.93
2018-10-12T07:32:34.563Z,27.37
2018-10-12T07:35:02.229Z,29.07
2018-10-12T07:37:29.948Z,23.92
2018-10-12T07:39:57.827Z,27.90
2018-10-12T07:42:25.612Z,37.57
2018-10-12T07:44:53.207Z,22.83
2018-10-12T07:47:20.844Z,27.17
2018-10-12T07:49:48.470Z,30.37
2018-10-12T07:52:16.106Z,30.50
2018-10-12T07:54:43.841Z,31.27
2018-10-12T07:57:12.524Z,27.63
2018-10-12T07:59:41.264Z,26.37
2018-10-12T08:02:09.675Z,23.63
2018-10-12T08:04:37.767Z,23.70
2018-10-12T08:07:05.650Z,25.47
2018-10-12T08:09:33.321Z,24.90
2018-10-12T08:12:00.929Z,25.82
2018-10-12T08:14:28.567Z,29.27
2018-10-12T08:16:56.179Z,28.50
2018-10-12T08:19:23.895Z,20.27
2018-10-12T08:21:51.586Z,25.03
2018-10-12T08:24:19.283Z,25.85
2018-10-12T08:26:46.988Z,23.13
2018-10-12T08:29:14.737Z,22.90
2018-10-12T08:31:42.468Z,22.37
2018-10-12T08:34:10.119Z,21.30
2018-10-12T08:36:37.904Z,27.73
2018-10-12T08:39:09.271Z,21.50
2018-10-12T08:41:37.140Z,20.07
2018-10-12T08:44:05.067Z,25.97
2018-10-12T08:46:33.100Z,21.73
2018-10-12T08:49:00.959Z,17.07
2018-10-12T08:51:28.566Z,24.30
2018-10-12T08:53:56.228Z,21.87
2018-10-12T08:56:23.883Z,22.05
2018-10-12T08:58:51.599Z,17.50
2018-10-12T09:01:19.210Z,22.23
2018-10-12T09:03:46.878Z,26.13
2018-10-12T09:06:14.962Z,23.42
2018-10-12T09:08:42.654Z,24.23
2018-10-12T09:11:10.312Z,21.45
2018-10-12T09:13:37.958Z,15.50
2018-10-12T09:16:06.019Z,23.97
2018-10-12T09:18:33.734Z,25.17
2018-10-12T09:21:01.756Z,20.90
2018-10-12T09:23:29.401Z,24.57
2018-10-12T09:25:57.082Z,20.50
2018-10-12T09:28:24.787Z,16.83
2018-10-12T09:30:52.804Z,24.23
2018-10-12T09:33:20.493Z,17.83
2018-10-12T09:35:48.215Z,16.80
2018-10-12T09:38:16.091Z,16.40
2018-10-12T09:40:43.693Z,15.95
2018-10-12T09:43:11.327Z,18.93
2018-10-12T09:45:39.109Z,15.43
2018-10-12T09:48:06.923Z,17.23
2018-10-12T09:50:34.637Z,17.43
2018-10-12T09:53:02.468Z,21.80
2018-10-12T09:55:30.131Z,17.15
2018-10-12T09:57:57.756Z,16.27
2018-10-12T10:00:31.152Z,15.87
2018-10-12T10:03:04.661Z,20.90
2018-10-12T10:05:32.477Z,16.07
2018-10-12T10:08:00.232Z,18.07
2018-10-12T10:10:27.900Z,23.10
2018-10-12T10:12:55.494Z,21.82
2018-10-12T10:15:23.761Z,19.23
2018-10-12T10:17:51.360Z,16.82
2018-10-12T10:20:19.055Z,17.47
2018-10-12T10:22:46.841Z,15.47
2018-10-12T10:25:14.553Z,20.93
2018-10-12T10:27:42.374Z,18.83
2018-10-12T10:30:10.196Z,13.30
2018-10-12T10:32:37.928Z,16.85
2018-10-12T10:35:06.140Z,15.78
2018-10-12T10:37:34.174Z,21.23
2018-10-12T10:40:01.878Z,18.20
2018-10-12T10:42:29.594Z,20.23
2018-10-12T10:44:57.294Z,14.83
2018-10-12T10:47:25.118Z,17.65
2018-10-12T10:49:52.857Z,15.00
2018-10-12T10:52:20.584Z,23.10
2018-10-12T10:54:48.246Z,14.10
2018-10-12T10:57:15.954Z,15.73
2018-10-12T10:59:43.743Z,16.37
2018-10-12T11:02:11.478Z,18.27
2018-10-12T11:04:39.184Z,20.43
2018-10-12T11:07:06.883Z,16.52
2018-10-12T11:09:34.577Z,24.52
2018-10-12T11:12:02.269Z,16.10
2018-10-12T11:14:29.878Z,21.27
2018-10-12T11:16:57.614Z,13.43
2018-10-12T11:19:25.369Z,15.83
2018-10-12T11:21:53.093Z,16.87
2018-10-12T11:24:20.785Z,13.83
2018-10-12T11:26:48.535Z,15.33
2018-10-12T11:29:16.261Z,10.33
2018-10-12T11:31:44.115Z,14.40
2018-10-12T11:34:11.772Z,12.40
2018-10-12T11:36:39.458Z,10.75
2018-10-12T11:39:11.401Z,10.70
2018-10-12T11:41:39.080Z,11.03
2018-10-12T11:44:06.823Z,10.88
2018-10-12T11:46:34.511Z,9.65
2018-10-12T11:49:02.173Z,11.40
2018-10-12T11:51:29.896Z,8.50
2018-10-12T11:53:57.561Z,10.23
2018-10-12T11:56:25.369Z,10.93
2018-10-12T11:58:53.079Z,8.83
2018-10-12T12:01:20.800Z,10.03
2018-10-12T12:03:48.475Z,10.50
2018-10-12T12:06:16.175Z,8.90
2018-10-12T12:08:43.826Z,11.70
2018-10-12T12:11:11.448Z,9.90
2018-10-12T12:13:39.112Z,9.85
2018-10-12T12:16:06.890Z,10.70
2018-10-12T12:18:34.593Z,10.37
2018-10-12T12:21:02.295Z,11.57
2018-10-12T12:23:30.050Z,11.17
2018-10-12T12:25:57.744Z,7.97
2018-10-12T12:28:25.583Z,11.53
2018-10-12T12:30:53.648Z,10.87
2018-10-12T12:33:21.338Z,9.35
2018-10-12T12:35:49.364Z,9.70
2018-10-12T12:38:16.823Z,9.50
2018-10-12T12:40:44.610Z,10.80
2018-10-12T12:43:12.777Z,9.07
2018-10-12T12:45:40.482Z,8.53
2018-10-12T12:48:08.388Z,8.80
2018-10-12T12:50:36.092Z,8.27
2018-10-12T12:53:03.805Z,9.18
2018-10-12T12:55:32.337Z,9.33
2018-10-12T12:58:00.596Z,10.53
2018-10-12T13:00:28.350Z,11.07
2018-10-12T13:02:56.032Z,8.93
2018-10-12T13:05:23.784Z,11.18
2018-10-12T13:07:51.468Z,9.53
2018-10-12T13:10:19.257Z,9.13
2018-10-12T13:12:46.936Z,10.40
2018-10-12T13:15:14.681Z,11.23
2018-10-12T13:17:42.420Z,9.35
2018-10-12T13:20:10.152Z,10.57
2018-10-12T13:22:38.433Z,10.30
2018-10-12T13:25:06.222Z,9.88
2018-10-12T13:27:33.884Z,13.30
2018-10-12T13:30:01.660Z,10.37
2018-10-12T13:32:29.925Z,12.87
2018-10-12T13:34:57.732Z,13.10
2018-10-12T13:37:25.588Z,9.70
2018-10-12T13:39:53.335Z,9.77
2018-10-12T13:42:21.146Z,9.57
2018-10-12T13:44:48.856Z,11.03
2018-10-12T13:47:16.491Z,9.90
2018-10-12T13:49:44.197Z,9.45
2018-10-12T13:52:11.883Z,11.73
2018-10-12T13:54:39.580Z,9.00
2018-10-12T13:57:07.362Z,9.90
2018-10-12T13:59:35.055Z,9.97
2018-10-12T14:02:02.785Z,16.33
2018-10-12T14:04:30.735Z,9.70
2018-10-12T14:06:58.417Z,9.57
2018-10-12T14:09:27.075Z,15.10
2018-10-12T14:11:54.766Z,13.45
2018-10-12T14:14:23.564Z,10.83
2018-10-12T14:16:51.324Z,11.30
2018-10-12T14:19:19.402Z,10.60
2018-10-12T14:21:46.821Z,9.70
2018-10-12T14:24:14.611Z,11.03
2018-10-12T14:26:42.335Z,8.83
2018-10-12T14:29:09.977Z,11.60
2018-10-12T14:31:37.729Z,12.90
2018-10-12T14:34:05.827Z,12.65
2018-10-12T14:36:33.676Z,10.33
2018-10-12T14:39:01.396Z,9.63
2018-10-12T14:41:29.160Z,9.80
2018-10-12T14:43:56.875Z,12.13
2018-10-12T14:46:24.491Z,10.83
2018-10-12T14:48:52.454Z,10.27
2018-10-12T14:51:20.199Z,11.40
2018-10-12T14:53:47.846Z,12.23
2018-10-12T14:56:16.070Z,14.25
2018-10-12T14:58:43.876Z,11.20
2018-10-12T15:01:11.933Z,10.17
2018-10-12T15:03:39.600Z,15.87
2018-10-12T15:06:07.340Z,11.88
2018-10-12T15:08:35.111Z,11.45
2018-10-12T15:11:02.718Z,14.53
2018-10-12T15:13:30.402Z,14.13
2018-10-12T15:15:58.097Z,14.03
2018-10-12T15:18:25.926Z,14.25
2018-10-12T15:20:53.663Z,16.25
2018-10-12T15:23:21.325Z,17.57
2018-10-12T15:25:49.173Z,18.10
2018-10-12T15:28:16.841Z,14.87
2018-10-12T15:30:44.619Z,19.43
2018-10-12T15:33:12.386Z,20.35
2018-10-12T15:35:40.081Z,21.10
2018-10-12T15:38:07.769Z,19.55
2018-10-12T15:40:35.745Z,25.75
2018-10-12T15:43:03.561Z,19.85
2018-10-12T15:45:31.254Z,19.35
2018-10-12T15:47:59.019Z,16.80
2018-10-12T15:50:26.840Z,26.30
2018-10-12T15:52:54.694Z,24.47
2018-10-12T15:55:22.571Z,15.93
2018-10-12T15:57:50.349Z,21.23
2018-10-12T16:00:18.120Z,27.53
2018-10-12T16:02:45.891Z,19.57
2018-10-12T16:05:13.665Z,28.75
2018-10-12T16:07:41.529Z,20.87
2018-10-12T16:10:09.543Z,21.87
2018-10-12T16:12:37.238Z,20.95
2018-10-12T16:15:05.265Z,28.23
2018-10-12T16:17:32.966Z,28.90
2018-10-12T16:20:00.676Z,18.97
2018-10-12T16:22:28.407Z,27.93
2018-10-12T16:25:13.429Z,22.60
2018-10-12T16:27:41.172Z,19.73
2018-10-12T16:30:09.007Z,25.75
2018-10-12T16:32:36.764Z,18.02
2018-10-12T16:35:04.808Z,24.98
2018-10-12T16:37:33.053Z,24.30
2018-10-12T16:40:00.736Z,19.00
2018-10-12T16:42:28.510Z,28.20
2018-10-12T16:44:58.358Z,18.90
2018-10-12T16:47:26.086Z,22.77
2018-10-12T16:49:53.852Z,20.15
2018-10-12T16:52:21.714Z,20.92
2018-10-12T16:54:49.452Z,22.65
2018-10-12T16:57:21.728Z,26.27
2018-10-12T16:59:49.697Z,22.07
2018-10-12T17:02:17.405Z,25.57
2018-10-12T17:04:45.168Z,19.32
2018-10-12T17:07:12.829Z,21.82
2018-10-12T17:09:41.127Z,24.80
2018-10-12T17:12:08.818Z,25.82
2018-10-12T17:14:36.770Z,31.82
2018-10-12T17:17:04.505Z,30.52
2018-10-12T17:19:32.415Z,22.80
2018-10-12T17:22:00.161Z,38.33
2018-10-12T17:24:27.941Z,32.13
2018-10-12T17:26:55.703Z,44.27
2018-10-12T17:29:23.433Z,39.47
2018-10-12T17:31:51.095Z,29.37
2018-10-12T17:34:18.809Z,30.35
2018-10-12T17:36:46.742Z,38.57
2018-10-12T17:39:14.580Z,46.40
2018-10-12T17:41:42.378Z,45.07
2018-10-12T17:44:10.215Z,33.17
2018-10-12T17:46:37.900Z,31.80
2018-10-12T17:49:06.653Z,24.77
2018-10-12T17:51:34.392Z,30.10
2018-10-12T17:54:02.099Z,29.32
2018-10-12T17:56:29.774Z,32.90
2018-10-12T17:58:57.642Z,35.03
2018-10-12T18:01:25.304Z,31.07
2018-10-12T18:03:53.156Z,36.27
2018-10-12T18:06:20.922Z,41.50
2018-10-12T18:08:49.022Z,62.05
2018-10-12T18:11:16.690Z,47.23
2018-10-12T18:13:44.357Z,40.78
2018-10-12T18:16:12.050Z,47.80
2018-10-12T18:18:39.815Z,45.77
2018-10-12T18:21:07.544Z,40.70
2018-10-12T18:23:35.482Z,49.60
2018-10-12T18:26:03.337Z,45.50
2018-10-12T18:28:31.005Z,71.43
2018-10-12T18:30:58.777Z,60.17
2018-10-12T18:33:26.445Z,54.13
2018-10-12T18:35:54.210Z,66.47
2018-10-12T18:38:21.901Z,46.87
2018-10-12T18:40:49.587Z,54.43
2018-10-12T18:43:17.353Z,50.90
2018-10-12T18:45:45.175Z,51.53
2018-10-12T18:48:12.917Z,39.20
2018-10-12T18:50:40.796Z,38.88
2018-10-12T18:53:08.550Z,35.83
2018-10-12T18:55:36.363Z,33.30
2018-10-12T18:58:04.277Z,26.80
2018-10-12T19:00:31.970Z,26.50
2018-10-12T19:02:59.948Z,32.10
2018-10-12T19:05:27.700Z,24.77
2018-10-12T19:07:55.631Z,27.03
2018-10-12T19:10:23.517Z,38.90
2018-10-12T19:12:51.240Z,32.33
2018-10-12T19:15:18.937Z,26.83
2018-10-12T19:17:47.571Z,41.98
2018-10-12T19:20:15.563Z,32.63
2018-10-12T19:22:43.378Z,28.47
2018-10-12T19:25:11.178Z,41.80
2018-10-12T19:27:38.992Z,28.17
2018-10-12T19:30:06.854Z,33.00
2018-10-12T19:32:34.595Z,37.03
2018-10-12T19:35:02.487Z,40.63
2018-10-12T19:37:30.329Z,29.13
2018-10-12T19:39:58.234Z,28.77
2018-10-12T19:42:26.203Z,30.13
2018-10-12T19:44:54.129Z,28.13
2018-10-12T19:47:22.477Z,33.83
2018-10-12T19:49:50.202Z,33.20
2018-10-12T19:52:18.078Z,26.83
2018-10-12T19:54:45.969Z,31.37
2018-10-12T19:57:13.769Z,29.53
2018-10-12T19:59:41.935Z,27.07
2018-10-12T20:02:09.735Z,26.47
2018-10-12T20:04:37.486Z,31.43
2018-10-12T20:07:05.394Z,21.00
2018-10-12T20:09:33.117Z,35.03
2018-10-12T20:12:01.837Z,31.53
2018-10-12T20:14:29.638Z,27.22
2018-10-12T20:16:57.386Z,31.37
2018-10-12T20:19:25.433Z,22.40
2018-10-12T20:21:53.366Z,25.90
2018-10-12T20:24:21.546Z,27.17
2018-10-12T20:26:51.022Z,29.07
2018-10-12T20:29:18.898Z,27.93
2018-10-12T20:31:46.788Z,25.43
2018-10-12T20:34:14.774Z,27.10
2018-10-12T20:36:42.535Z,25.30
2018-10-12T20:39:11.536Z,29.75
2018-10-12T20:41:39.599Z,29.97
2018-10-12T20:44:07.668Z,26.83
2018-10-12T20:46:35.450Z,34.53
2018-10-12T20:49:03.206Z,31.00
2018-10-12T20:51:31.018Z,31.50
2018-10-12T20:53:58.740Z,34.90
2018-10-12T20:56:26.452Z,32.13
2018-10-12T20:58:54.117Z,30.67
2018-10-12T21:01:21.926Z,28.97
2018-10-12T21:03:49.657Z,25.10
2018-10-12T21:06:17.356Z,26.80
2018-10-12T21:08:45.086Z,30.37
2018-10-12T21:11:12.750Z,26.97
2018-10-12T21:13:40.433Z,38.07
2018-10-12T21:16:08.461Z,21.37
2018-10-12T21:18:36.110Z,26.83
2018-10-12T21:21:03.868Z,25.68
2018-10-12T21:23:31.585Z,28.13
2018-10-12T21:25:59.260Z,24.30
2018-10-12T21:28:26.961Z,23.42
2018-10-12T21:30:54.656Z,22.23
2018-10-12T21:33:22.349Z,27.73
2018-10-12T21:35:50.010Z,22.60
2018-10-12T21:38:17.669Z,26.48
2018-10-12T21:40:45.300Z,23.17
2018-10-12T21:43:12.919Z,23.47
2018-10-12T21:45:40.655Z,26.53
2018-10-12T21:48:08.275Z,22.05
2018-10-12T21:50:36.019Z,23.03
2018-10-12T21:53:03.791Z,29.25
2018-10-12T21:55:31.456Z,31.50
2018-10-12T21:57:59.148Z,29.70
2018-10-12T22:00:26.985Z,29.20
2018-10-12T22:02:54.680Z,28.10
2018-10-12T22:05:22.400Z,26.43
2018-10-12T22:07:50.043Z,30.43
2018-10-12T22:10:17.664Z,27.75
2018-10-12T22:12:45.310Z,30.67
2018-10-12T22:15:12.985Z,24.63
2018-10-12T22:17:40.578Z,20.80
2018-10-12T22:20:08.218Z,22.80
2018-10-12T22:22:35.897Z,31.80
2018-10-12T22:25:03.646Z,31.97
2018-10-12T22:27:31.286Z,30.10
2018-10-12T22:29:58.962Z,21.83
2018-10-12T22:32:26.589Z,24.90
2018-10-12T22:34:54.286Z,30.08
2018-10-12T22:37:22.004Z,29.70
2018-10-12T22:39:49.693Z,34.13
2018-10-12T22:42:17.340Z,28.13
2018-10-12T22:44:45.024Z,28.40
2018-10-12T22:47:12.765Z,24.90
2018-10-12T22:49:40.397Z,24.83
2018-10-12T22:52:08.082Z,31.10
2018-10-12T22:54:35.879Z,30.77
2018-10-12T22:57:03.553Z,26.07
2018-10-12T22:59:31.195Z,30.40
2018-10-12T23:01:58.837Z,30.48
2018-10-12T23:04:26.499Z,28.63
2018-10-12T23:06:54.274Z,28.00
2018-10-12T23:09:21.910Z,33.80
2018-10-12T23:11:49.543Z,26.68
2018-10-12T23:14:17.195Z,26.30
2018-10-12T23:16:44.869Z,25.95
2018-10-12T23:19:12.544Z,36.38
2018-10-12T23:21:40.269Z,28.17
2018-10-12T23:24:07.910Z,30.30
2018-10-12T23:26:35.620Z,26.70
2018-10-12T23:29:03.281Z,34.00
2018-10-12T23:31:31.027Z,30.00
2018-10-12T23:34:03.524Z,29.63
2018-10-12T23:36:31.401Z,30.37
2018-10-12T23:38:59.430Z,28.70
2018-10-12T23:41:27.427Z,39.57
2018-10-12T23:43:55.468Z,36.30
2018-10-12T23:46:23.468Z,26.27
2018-10-12T23:48:51.142Z,32.30
2018-10-12T23:51:18.918Z,33.18
2018-10-12T23:53:46.567Z,36.15
2018-10-12T23:56:14.247Z,38.77
2018-10-12T23:58:41.935Z,33.80
